Time;durP1;ratioP1;P1;durP2;ratioP2;P2;SDS_P1;SDS_P2;PMS_P1;PMS_P2;Temp;Humidity;BMP_temperature;BMP_pressure;BME280_temperature;BME280_humidity;BME280_pressure;Samples;Min_cycle;Max_cycle;Signal;HPM_P1;HPM_P2
2022/03/10 00:01:45;;;;;;;7.97;5.70;;;3.70;99.90;;;;;;5013178;28;20623;-67
2022/03/10 00:04:11;;;;;;;10.93;5.63;;;3.70;99.90;;;;;;5013158;28;20489;-67
2022/03/10 00:06:37;;;;;;;10.53;6.50;;;3.70;99.90;;;;;;5012884;28;20176;-67
2022/03/10 00:09:02;;;;;;;8.13;4.67;;;3.80;99.90;;;;;;5012941;28;20208;-67
2022/03/10 00:11:28;;;;;;;4.43;4.03;;;3.80;99.90;;;;;;5013097;28;20185;-67
2022/03/10 00:13:54;;;;;;;8.60;7.00;;;3.80;99.90;;;;;;5012844;28;20176;-67
2022/03/10 00:16:20;;;;;;;7.47;4.60;;;3.80;99.90;;;;;;5012881;28;20415;-67
2022/03/10 00:18:46;;;;;;;9.90;6.30;;;3.90;99.90;;;;;;5012532;28;20973;-67
2022/03/10 00:21:11;;;;;;;7.00;5.07;;;3.80;99.90;;;;;;5012475;28;20569;-67
2022/03/10 00:23:37;;;;;;;11.50;5.87;;;3.80;99.90;;;;;;5012641;28;20169;-66
2022/03/10 00:26:02;;;;;;;10.73;6.43;;;3.80;99.90;;;;;;5012888;28;20218;-67
2022/03/10 00:28:28;;;;;;;8.80;6.17;;;3.80;99.90;;;;;;5012565;28;20231;-67
2022/03/10 00:30:53;;;;;;;10.70;5.73;;;3.90;99.90;;;;;;5012941;28;20611;-67
2022/03/10 00:33:19;;;;;;;7.57;5.90;;;3.90;99.90;;;;;;5012554;28;20203;-67
2022/03/10 00:35:44;;;;;;;9.13;6.30;;;3.90;99.90;;;;;;4994888;28;20168;-67
2022/03/10 00:38:10;;;;;;;11.63;6.70;;;3.80;99.90;;;;;;5012480;28;20200;-67
2022/03/10 00:40:35;;;;;;;6.27;4.97;;;3.80;99.90;;;;;;5012582;28;20527;-67
2022/03/10 00:43:01;;;;;;;6.23;4.87;;;3.80;99.90;;;;;;5012528;28;20179;-67
2022/03/10 00:45:26;;;;;;;10.07;5.00;;;3.80;99.90;;;;;;5012177;28;20176;-67
2022/03/10 00:47:52;;;;;;;12.30;6.87;;;3.80;99.90;;;;;;5012429;28;20572;-67
2022/03/10 00:50:18;;;;;;;11.57;5.97;;;3.80;99.90;;;;;;5012124;28;20188;-67
2022/03/10 00:52:45;;;;;;;12.07;5.50;;;3.80;99.90;;;;;;5012152;28;21004;-67
2022/03/10 00:55:12;;;;;;;8.37;4.37;;;3.80;99.90;;;;;;5012017;28;20182;-67
2022/03/10 00:57:39;;;;;;;7.13;5.43;;;3.80;99.90;;;;;;5012030;28;20486;-67
2022/03/10 01:00:06;;;;;;;11.30;8.20;;;3.70;99.90;;;;;;5011809;28;20514;-67
2022/03/10 01:02:34;;;;;;;7.00;5.00;;;3.70;99.90;;;;;;5011878;28;20453;-67
2022/03/10 01:04:59;;;;;;;13.87;7.10;;;3.60;99.90;;;;;;5012439;28;21130;-67
2022/03/10 01:07:25;;;;;;;15.60;6.00;;;3.60;99.90;;;;;;5011804;28;20494;-67
2022/03/10 01:09:51;;;;;;;10.33;6.27;;;3.60;99.90;;;;;;5011781;28;20199;-67
2022/03/10 01:12:17;;;;;;;11.90;5.80;;;3.60;99.90;;;;;;5011792;28;20228;-67
2022/03/10 01:14:43;;;;;;;14.83;7.63;;;3.70;99.90;;;;;;5011653;28;20423;-67
2022/03/10 01:17:09;;;;;;;7.27;6.13;;;3.60;99.90;;;;;;5011828;28;20678;-67
2022/03/10 01:19:34;;;;;;;11.90;6.87;;;3.60;99.90;;;;;;5011685;28;20522;-67
2022/03/10 01:21:59;;;;;;;10.20;5.70;;;3.60;99.90;;;;;;5011570;28;20271;-67
2022/03/10 01:24:25;;;;;;;11.73;5.93;;;3.60;99.90;;;;;;5011620;28;20172;-67
2022/03/10 01:26:51;;;;;;;11.93;6.07;;;3.60;99.90;;;;;;5011617;28;20580;-66
2022/03/10 01:29:17;;;;;;;10.27;5.47;;;3.60;99.90;;;;;;5011322;28;20302;-67
2022/03/10 01:31:42;;;;;;;12.60;5.77;;;3.50;99.90;;;;;;5011753;28;20203;-67
2022/03/10 01:34:08;;;;;;;10.80;5.60;;;3.50;99.90;;;;;;5011686;28;20419;-67
2022/03/10 01:36:33;;;;;;;11.20;6.07;;;3.50;99.90;;;;;;5011944;28;20212;-67
2022/03/10 01:39:03;;;;;;;9.57;6.37;;;3.50;99.90;;;;;;5011459;28;20211;-67
2022/03/10 01:41:28;;;;;;;10.73;7.57;;;3.40;99.90;;;;;;5011458;28;20175;-67
2022/03/10 01:43:59;;;;;;;9.50;5.80;;;3.40;99.90;;;;;;5011226;28;20419;-67
2022/03/10 01:46:25;;;;;;;8.00;6.00;;;3.30;99.90;;;;;;5011285;28;20168;-67
2022/03/10 01:48:51;;;;;;;9.43;5.33;;;3.30;99.90;;;;;;5011520;28;20514;-67
2022/03/10 01:51:17;;;;;;;4.67;4.13;;;3.20;99.90;;;;;;5011579;28;20505;-67
2022/03/10 01:53:43;;;;;;;9.50;5.60;;;3.20;99.90;;;;;;5011323;28;20188;-67
2022/03/10 01:56:10;;;;;;;8.10;4.40;;;3.20;99.90;;;;;;5011516;28;20407;-67
2022/03/10 01:58:37;;;;;;;9.87;5.93;;;3.20;99.90;;;;;;5011619;28;20207;-67
2022/03/10 02:01:03;;;;;;;5.33;4.83;;;3.20;99.90;;;;;;5011912;28;20418;-66
2022/03/10 02:03:28;;;;;;;17.13;5.80;;;3.10;99.90;;;;;;5011580;28;20779;-66
2022/03/10 02:05:54;;;;;;;13.20;5.23;;;3.10;99.90;;;;;;5011676;28;20411;-66
2022/03/10 02:11:12;;;;;;;14.47;8.23;;;3.10;99.90;;;;;;4987534;28;20415;-66
2022/03/10 02:13:37;;;;;;;7.07;6.03;;;3.00;99.90;;;;;;5009932;28;20851;-67
2022/03/10 02:18:47;;;;;;;16.90;7.70;;;3.00;99.90;;;;;;5011100;28;20254;-67
2022/03/10 02:21:14;;;;;;;12.90;7.00;;;3.00;99.90;;;;;;5011361;28;20482;-67
2022/03/10 02:23:39;;;;;;;9.30;4.60;;;3.00;99.90;;;;;;5011850;28;20177;-67
2022/03/10 02:26:06;;;;;;;9.30;7.37;;;2.90;99.90;;;;;;5011117;28;20429;-67
2022/03/10 02:28:32;;;;;;;13.30;7.30;;;2.90;99.90;;;;;;5010879;28;20295;-68
2022/03/10 02:30:58;;;;;;;7.83;4.70;;;2.90;99.90;;;;;;5011119;28;20910;-67
2022/03/10 02:33:24;;;;;;;17.87;7.77;;;2.80;99.90;;;;;;5011054;28;20445;-67
2022/03/10 02:35:50;;;;;;;13.37;6.00;;;2.80;99.90;;;;;;5010979;28;20183;-67
2022/03/10 02:38:18;;;;;;;8.53;5.50;;;2.80;99.90;;;;;;5010902;28;20666;-67
2022/03/10 02:40:44;;;;;;;7.63;6.20;;;2.80;99.90;;;;;;5010916;28;20427;-67
2022/03/10 02:43:09;;;;;;;10.97;6.80;;;2.80;99.90;;;;;;5011030;28;20407;-69
2022/03/10 02:45:35;;;;;;;14.70;6.70;;;2.80;99.90;;;;;;5014417;28;20407;-67
2022/03/10 02:48:00;;;;;;;5.70;3.57;;;2.70;99.90;;;;;;5014496;28;20195;-68
2022/03/10 02:50:26;;;;;;;9.40;6.40;;;2.70;99.90;;;;;;4996822;28;20608;-67
2022/03/10 02:52:51;;;;;;;11.20;6.50;;;2.80;99.90;;;;;;5014324;28;20246;-67
2022/03/10 02:55:17;;;;;;;14.87;7.70;;;2.70;99.90;;;;;;5014285;28;20169;-67
2022/03/10 02:57:42;;;;;;;6.57;5.33;;;2.70;99.90;;;;;;5014287;28;20279;-67
2022/03/10 03:00:08;;;;;;;10.20;6.77;;;2.70;99.90;;;;;;5014282;28;20196;-67
2022/03/10 03:02:34;;;;;;;6.77;4.73;;;2.70;99.90;;;;;;5014087;28;20196;-67
2022/03/10 03:05:00;;;;;;;7.37;6.03;;;2.80;99.90;;;;;;5014420;28;20466;-67
2022/03/10 03:07:25;;;;;;;13.93;7.10;;;2.80;99.90;;;;;;5014368;28;20200;-67
2022/03/10 03:09:51;;;;;;;17.67;8.37;;;2.80;99.90;;;;;;5014168;28;20204;-67
2022/03/10 03:12:16;;;;;;;7.30;6.00;;;2.80;99.90;;;;;;5014101;28;20187;-67
2022/03/10 03:14:42;;;;;;;10.67;6.50;;;2.80;99.90;;;;;;5014116;28;20355;-67
2022/03/10 03:17:07;;;;;;;10.80;6.60;;;2.80;99.90;;;;;;5014195;28;20204;-68
2022/03/10 03:19:33;;;;;;;10.13;7.00;;;2.80;99.90;;;;;;5014250;28;20250;-67
2022/03/10 03:21:58;;;;;;;10.90;6.00;;;2.80;99.90;;;;;;5014156;28;20716;-67
2022/03/10 03:24:24;;;;;;;8.33;6.07;;;2.80;99.90;;;;;;5014031;28;20181;-67
2022/03/10 03:26:49;;;;;;;10.63;6.30;;;2.80;99.90;;;;;;5013923;28;20176;-67
2022/03/10 03:29:15;;;;;;;5.57;5.07;;;2.70;99.90;;;;;;5013995;28;20571;-66
2022/03/10 03:31:41;;;;;;;6.90;5.47;;;2.80;99.90;;;;;;5013946;28;20176;-67
2022/03/10 03:34:10;;;;;;;13.50;5.70;;;2.70;99.90;;;;;;5014102;28;20415;-67
2022/03/10 03:36:40;;;;;;;7.90;5.20;;;2.80;99.90;;;;;;5014186;28;20654;-66
2022/03/10 03:39:06;;;;;;;10.70;6.30;;;2.80;99.90;;;;;;5015172;28;20463;-67
2022/03/10 03:41:32;;;;;;;13.30;8.67;;;2.80;99.90;;;;;;5015874;28;20479;-66
2022/03/10 03:43:58;;;;;;;9.83;7.50;;;2.70;99.90;;;;;;5014782;28;20411;-67
2022/03/10 03:46:23;;;;;;;9.00;4.77;;;2.70;99.90;;;;;;5013953;28;20748;-67
2022/03/10 03:48:49;;;;;;;8.10;6.13;;;2.70;99.90;;;;;;5013888;28;20505;-67
2022/03/10 03:51:15;;;;;;;9.93;6.63;;;2.70;99.90;;;;;;5014000;28;20173;-67
2022/03/10 03:53:40;;;;;;;13.40;5.57;;;2.70;99.90;;;;;;5013877;28;20234;-66
2022/03/10 03:56:05;;;;;;;11.00;5.70;;;2.70;99.90;;;;;;5013230;28;20176;-67
2022/03/10 03:58:31;;;;;;;10.23;6.07;;;2.70;99.90;;;;;;5013666;28;20208;-67
2022/03/10 04:00:56;;;;;;;19.03;8.53;;;2.70;99.90;;;;;;5013285;28;20679;-66
2022/03/10 04:03:22;;;;;;;8.00;6.00;;;2.70;99.90;;;;;;5013117;28;20160;-67
2022/03/10 04:05:47;;;;;;;16.13;6.90;;;2.70;99.90;;;;;;5012935;28;20251;-67
2022/03/10 04:08:13;;;;;;;9.60;6.47;;;2.70;99.90;;;;;;5013055;28;20173;-67
2022/03/10 04:10:38;;;;;;;13.40;7.43;;;2.70;99.90;;;;;;5013009;28;20176;-67
2022/03/10 04:13:05;;;;;;;7.70;6.60;;;2.70;99.90;;;;;;5012727;28;20176;-66
2022/03/10 04:15:31;;;;;;;8.90;6.03;;;2.70;99.90;;;;;;5012769;28;20160;-67
2022/03/10 04:17:56;;;;;;;8.53;5.50;;;2.60;99.90;;;;;;5013000;28;20454;-66
2022/03/10 04:20:22;;;;;;;9.57;6.37;;;2.70;99.90;;;;;;5012718;28;20659;-66
2022/03/10 04:22:47;;;;;;;10.43;5.57;;;2.60;99.90;;;;;;5012818;28;20643;-66
2022/03/10 04:25:13;;;;;;;8.90;4.10;;;2.60;99.90;;;;;;5012670;28;20191;-66
2022/03/10 04:27:40;;;;;;;11.07;6.67;;;2.60;99.90;;;;;;5012661;28;20701;-66
2022/03/10 04:30:06;;;;;;;13.03;7.17;;;2.50;99.90;;;;;;5012430;28;20212;-66
2022/03/10 04:32:40;;;;;;;12.30;7.53;;;2.50;99.90;;;;;;5012755;28;20414;-66
2022/03/10 04:35:06;;;;;;;15.00;7.13;;;2.50;99.90;;;;;;5012772;28;20407;-66
2022/03/10 04:37:31;;;;;;;13.90;7.07;;;2.50;99.90;;;;;;5012334;28;20451;-66
2022/03/10 04:39:56;;;;;;;11.47;7.40;;;2.50;99.90;;;;;;5012434;28;20663;-67
2022/03/10 04:42:22;;;;;;;8.13;6.60;;;2.40;99.90;;;;;;5012448;28;20168;-66
2022/03/10 04:44:47;;;;;;;6.53;4.70;;;2.40;99.90;;;;;;5012333;28;20168;-66
2022/03/10 04:47:13;;;;;;;11.03;5.20;;;2.40;99.90;;;;;;5012346;28;20177;-66
2022/03/10 04:49:39;;;;;;;10.40;6.10;;;2.40;99.90;;;;;;5012281;28;20728;-66
2022/03/10 04:52:06;;;;;;;18.10;6.53;;;2.30;99.90;;;;;;5012341;28;20306;-66
2022/03/10 04:54:31;;;;;;;8.93;8.23;;;2.40;99.90;;;;;;5012186;28;20204;-66
2022/03/10 04:56:57;;;;;;;10.30;5.23;;;2.40;99.90;;;;;;5012045;28;20458;-66
2022/03/10 04:59:22;;;;;;;8.10;5.20;;;2.30;99.90;;;;;;5012462;28;20222;-67
2022/03/10 05:01:48;;;;;;;7.37;5.53;;;2.30;99.90;;;;;;5012143;28;20164;-66
2022/03/10 05:04:13;;;;;;;10.97;6.60;;;2.30;99.90;;;;;;5012335;28;20192;-66
2022/03/10 05:06:39;;;;;;;13.83;6.67;;;2.30;99.90;;;;;;5011789;28;20184;-66
2022/03/10 05:09:04;;;;;;;11.70;5.63;;;2.30;99.90;;;;;;5011854;28;20203;-67
2022/03/10 05:11:30;;;;;;;7.77;5.27;;;2.20;99.90;;;;;;5012191;28;20191;-67
2022/03/10 05:13:55;;;;;;;9.63;5.27;;;2.20;99.90;;;;;;5012249;28;20259;-67
2022/03/10 05:16:20;;;;;;;8.20;5.23;;;2.20;99.90;;;;;;5011957;28;20638;-66
2022/03/10 05:18:46;;;;;;;12.50;6.43;;;2.20;99.90;;;;;;5011886;28;20234;-67
2022/03/10 05:21:11;;;;;;;10.13;7.50;;;2.10;99.90;;;;;;5011975;28;20168;-67
2022/03/10 05:23:37;;;;;;;9.00;6.27;;;2.10;99.90;;;;;;5012109;28;20175;-67
2022/03/10 05:26:02;;;;;;;12.90;7.93;;;2.10;99.90;;;;;;4994364;28;20267;-67
2022/03/10 05:28:28;;;;;;;5.67;5.10;;;2.10;99.90;;;;;;5012286;28;20208;-67
2022/03/10 05:30:53;;;;;;;8.57;7.27;;;2.10;99.90;;;;;;5012480;28;20643;-67
2022/03/10 05:33:18;;;;;;;8.90;6.60;;;2.00;99.90;;;;;;5012061;28;20613;-67
2022/03/10 05:35:44;;;;;;;16.17;8.77;;;2.00;99.90;;;;;;5012122;28;20176;-67
2022/03/10 05:38:09;;;;;;;11.47;9.23;;;2.00;99.90;;;;;;5011702;28;20242;-66
2022/03/10 05:40:35;;;;;;;10.30;6.93;;;2.00;99.90;;;;;;5011890;28;20196;-66
2022/03/10 05:43:01;;;;;;;7.43;6.43;;;2.00;99.90;;;;;;5011695;28;20173;-67
2022/03/10 05:45:26;;;;;;;11.33;7.23;;;1.90;99.90;;;;;;5011938;28;20168;-66
2022/03/10 05:47:54;;;;;;;8.63;5.43;;;1.90;99.90;;;;;;5011924;28;20180;-66
2022/03/10 05:50:20;;;;;;;6.60;5.17;;;1.90;99.90;;;;;;5011650;28;20200;-66
2022/03/10 05:52:46;;;;;;;10.00;8.43;;;1.90;99.90;;;;;;5011652;28;20411;-66
2022/03/10 05:55:13;;;;;;;7.73;6.67;;;1.90;99.90;;;;;;5011333;28;20410;-66
2022/03/10 05:57:39;;;;;;;7.73;6.97;;;1.90;99.90;;;;;;4994023;28;20231;-66
2022/03/10 06:00:05;;;;;;;13.17;8.53;;;1.90;99.90;;;;;;5011554;28;20509;-66
2022/03/10 06:02:31;;;;;;;15.83;6.83;;;1.90;99.90;;;;;;5011382;28;20430;-66
2022/03/10 06:05:00;;;;;;;10.83;6.77;;;1.90;99.90;;;;;;5011963;28;20404;-66
2022/03/10 06:07:29;;;;;;;11.80;6.43;;;2.00;99.90;;;;;;5012152;28;20207;-66
2022/03/10 06:09:55;;;;;;;15.27;8.20;;;2.00;99.90;;;;;;5011417;28;20501;-66
2022/03/10 06:12:22;;;;;;;10.53;6.87;;;2.00;99.90;;;;;;5011504;28;20419;-66
2022/03/10 06:14:47;;;;;;;11.90;7.00;;;2.00;99.90;;;;;;5011302;28;20917;-66
2022/03/10 06:17:13;;;;;;;20.03;7.60;;;2.10;99.90;;;;;;5011533;28;20447;-66
2022/03/10 06:19:38;;;;;;;9.30;5.43;;;2.10;99.90;;;;;;5013902;28;20250;-66
2022/03/10 06:22:04;;;;;;;7.77;5.27;;;2.20;99.90;;;;;;5014975;28;20192;-66
2022/03/10 06:24:29;;;;;;;8.00;7.13;;;2.20;99.90;;;;;;5014957;28;20175;-66
2022/03/10 06:26:55;;;;;;;8.67;6.90;;;2.30;99.90;;;;;;5015128;28;20157;-66
2022/03/10 06:29:20;;;;;;;10.57;5.70;;;2.40;99.90;;;;;;5015278;28;20278;-67
2022/03/10 06:31:47;;;;;;;14.67;8.90;;;2.60;99.90;;;;;;5053566;22;20681;-71
2022/03/10 06:34:13;;;;;;;11.00;8.13;;;2.80;99.90;;;;;;5034762;28;20176;-71
2022/03/10 06:36:38;;;;;;;10.83;9.30;;;3.10;99.90;;;;;;5034837;28;20410;-71
2022/03/10 06:39:06;;;;;;;13.97;8.47;;;3.60;99.90;;;;;;5034767;28;20227;-71
2022/03/10 06:41:31;;;;;;;15.00;5.80;;;4.10;99.90;;;;;;5034811;28;20191;-71
2022/03/10 06:43:57;;;;;;;11.43;7.67;;;4.70;99.90;;;;;;5034926;28;20439;-72
2022/03/10 06:46:22;;;;;;;11.30;7.47;;;5.20;99.90;;;;;;5034600;28;20241;-71
2022/03/10 06:48:48;;;;;;;16.30;7.90;;;5.40;99.90;;;;;;5035581;28;20184;-73
2022/03/10 06:51:14;;;;;;;13.43;7.97;;;5.50;99.90;;;;;;5034529;28;20634;-71
2022/03/10 06:53:39;;;;;;;12.80;7.20;;;5.30;99.90;;;;;;5034427;28;20172;-71
2022/03/10 06:56:05;;;;;;;12.40;7.67;;;5.90;99.90;;;;;;5034533;28;20414;-72
2022/03/10 06:58:30;;;;;;;11.70;8.20;;;6.20;99.90;;;;;;5034593;28;20195;-72
2022/03/10 07:00:55;;;;;;;10.87;8.23;;;6.60;99.90;;;;;;5034269;28;20670;-72
2022/03/10 07:03:21;;;;;;;18.00;8.83;;;6.90;99.90;;;;;;5016553;28;20168;-72
2022/03/10 07:05:47;;;;;;;12.13;6.80;;;6.90;99.90;;;;;;5034285;28;20179;-71
2022/03/10 07:08:13;;;;;;;16.23;6.60;;;6.80;99.90;;;;;;5034188;28;20916;-72
2022/03/10 07:10:38;;;;;;;10.30;6.90;;;7.20;99.90;;;;;;5034229;28;20199;-72
2022/03/10 07:13:04;;;;;;;11.57;7.97;;;7.50;99.90;;;;;;5034266;28;20180;-72
2022/03/10 07:15:29;;;;;;;13.07;6.50;;;7.40;99.90;;;;;;5034234;28;20200;-72
2022/03/10 07:17:55;;;;;;;13.63;8.50;;;7.30;99.90;;;;;;5034221;28;20192;-72
2022/03/10 07:20:20;;;;;;;12.27;6.20;;;7.40;99.90;;;;;;5034157;28;20244;-72
2022/03/10 07:22:46;;;;;;;11.37;6.70;;;7.90;99.90;;;;;;5034182;28;20700;-72
2022/03/10 07:25:12;;;;;;;13.53;8.03;;;7.80;99.90;;;;;;5033866;28;20479;-72
2022/03/10 07:27:38;;;;;;;12.63;6.67;;;8.40;99.90;;;;;;5034339;28;20659;-72
2022/03/10 07:30:04;;;;;;;12.60;8.53;;;8.20;99.90;;;;;;5032668;28;20179;-73
2022/03/10 07:32:30;;;;;;;12.40;7.23;;;8.40;99.90;;;;;;5033979;28;20933;-71
2022/03/10 07:34:55;;;;;;;9.77;6.30;;;8.90;99.90;;;;;;5033615;28;20411;-71
2022/03/10 07:37:21;;;;;;;11.10;7.23;;;8.70;99.90;;;;;;5033649;28;20222;-73
2022/03/10 07:39:47;;;;;;;11.97;6.50;;;9.10;99.90;;;;;;5033804;28;20202;-75
2022/03/10 07:42:13;;;;;;;11.33;6.53;;;8.80;99.90;;;;;;5034606;28;20171;-73
2022/03/10 07:44:39;;;;;;;11.83;9.70;;;9.10;99.90;;;;;;5035885;28;20448;-71
2022/03/10 07:47:05;;;;;;;11.57;8.50;;;9.40;99.90;;;;;;5033736;28;20407;-71
2022/03/10 07:49:32;;;;;;;13.17;7.93;;;8.90;99.90;;;;;;5033322;28;20179;-71
2022/03/10 07:51:58;;;;;;;11.27;8.10;;;8.70;99.90;;;;;;5027829;28;20442;-71
2022/03/10 07:54:25;;;;;;;11.97;7.17;;;9.00;99.90;;;;;;5034455;28;20434;-71
2022/03/10 07:56:51;;;;;;;9.40;6.67;;;9.60;99.90;;;;;;5031176;28;20826;-71
2022/03/10 07:59:16;;;;;;;10.17;6.67;;;9.70;99.90;;;;;;5031689;28;20466;-70
2022/03/10 08:01:41;;;;;;;14.97;8.10;;;9.80;99.90;;;;;;5030874;28;20223;-72
2022/03/10 08:04:07;;;;;;;14.90;8.90;;;9.20;99.90;;;;;;5033437;28;20172;-71
2022/03/10 08:06:33;;;;;;;12.97;7.70;;;9.10;99.90;;;;;;5036077;28;20198;-73
2022/03/10 08:08:58;;;;;;;14.97;7.70;;;9.50;99.90;;;;;;5036162;28;20172;-71
2022/03/10 08:11:24;;;;;;;12.70;7.50;;;9.70;99.90;;;;;;5033590;28;20214;-73
2022/03/10 08:13:50;;;;;;;10.37;6.67;;;9.70;99.90;;;;;;5035162;28;20229;-71
2022/03/10 08:16:16;;;;;;;13.00;7.90;;;9.20;99.90;;;;;;5033911;28;20422;-71
2022/03/10 08:18:41;;;;;;;13.43;7.60;;;9.30;99.90;;;;;;5029066;28;20191;-71
2022/03/10 08:21:07;;;;;;;12.33;8.17;;;9.60;99.90;;;;;;5032746;28;20187;-71
2022/03/10 08:23:32;;;;;;;13.67;8.27;;;9.20;99.90;;;;;;5033085;28;20613;-71
2022/03/10 08:25:58;;;;;;;16.53;8.13;;;9.60;99.90;;;;;;5032890;28;20515;-72
2022/03/10 08:28:26;;;;;;;11.53;8.17;;;9.70;99.90;;;;;;5028833;28;20665;-70
2022/03/10 08:30:52;;;;;;;9.20;7.20;;;10.20;99.90;;;;;;5032814;28;20257;-70
2022/03/10 08:33:18;;;;;;;15.90;7.37;;;10.10;99.90;;;;;;5020874;28;20470;-71
2022/03/10 08:35:43;;;;;;;14.73;8.33;;;9.70;99.90;;;;;;5025723;28;20257;-71
2022/03/10 08:38:09;;;;;;;20.33;9.00;;;9.80;99.90;;;;;;5031532;28;20210;-71
2022/03/10 08:40:34;;;;;;;18.40;7.60;;;10.00;99.90;;;;;;5032107;28;20192;-70
2022/03/10 08:43:00;;;;;;;13.10;7.33;;;9.80;99.90;;;;;;5033377;28;20164;-72
2022/03/10 08:45:26;;;;;;;10.37;8.37;;;9.90;99.90;;;;;;5031463;28;20348;-72
2022/03/10 08:47:53;;;;;;;14.07;8.97;;;10.00;99.90;;;;;;5028675;28;20168;-71
2022/03/10 08:50:19;;;;;;;17.13;9.40;;;10.10;99.90;;;;;;5031962;28;20250;-72
2022/03/10 08:52:44;;;;;;;13.57;8.63;;;10.10;99.90;;;;;;5032816;28;20406;-72
2022/03/10 08:55:11;;;;;;;12.30;7.53;;;10.40;99.90;;;;;;5031952;28;20418;-71
2022/03/10 08:57:37;;;;;;;13.10;9.27;;;11.00;99.90;;;;;;5032203;28;20199;-71
2022/03/10 09:00:05;;;;;;;13.40;9.00;;;10.90;99.90;;;;;;5032175;28;20456;-70
2022/03/10 09:02:31;;;;;;;12.33;8.20;;;11.50;99.90;;;;;;5031453;28;20602;-71
2022/03/10 09:04:56;;;;;;;14.50;8.90;;;11.50;99.90;;;;;;5031814;28;20422;-71
2022/03/10 09:07:21;;;;;;;16.90;8.70;;;11.10;99.90;;;;;;5031781;28;20422;-71
2022/03/10 09:09:47;;;;;;;10.90;8.57;;;11.10;99.90;;;;;;5031937;28;20194;-71
2022/03/10 09:12:12;;;;;;;15.47;8.70;;;11.00;99.90;;;;;;5031941;28;20168;-71
2022/03/10 09:14:38;;;;;;;15.57;9.33;;;11.40;99.90;;;;;;5031663;28;20173;-71
2022/03/10 09:17:04;;;;;;;20.10;8.40;;;11.30;99.90;;;;;;5031657;28;20203;-71
2022/03/10 09:19:29;;;;;;;13.30;8.00;;;11.00;99.90;;;;;;5031463;28;20164;-71
2022/03/10 09:21:55;;;;;;;12.80;7.70;;;11.20;99.90;;;;;;5031409;28;20226;-71
2022/03/10 09:24:20;;;;;;;13.80;9.30;;;11.40;99.90;;;;;;5031737;28;20169;-71
2022/03/10 09:26:46;;;;;;;12.13;7.47;;;11.70;99.90;;;;;;5014131;28;20268;-72
2022/03/10 09:29:11;;;;;;;14.57;8.90;;;11.90;99.90;;;;;;5032728;28;20175;-71
2022/03/10 09:31:37;;;;;;;16.53;7.50;;;12.20;99.90;;;;;;5032575;28;20269;-71
2022/03/10 09:34:04;;;;;;;15.87;8.40;;;11.60;99.90;;;;;;5031709;28;20181;-71
2022/03/10 09:36:30;;;;;;;15.20;8.97;;;11.50;99.90;;;;;;5031421;28;20239;-71
2022/03/10 09:38:55;;;;;;;12.63;8.10;;;12.20;99.90;;;;;;5031336;28;20459;-72
2022/03/10 09:41:21;;;;;;;13.63;8.30;;;11.30;99.90;;;;;;5031168;28;20442;-71
2022/03/10 09:43:48;;;;;;;12.43;9.07;;;11.40;99.90;;;;;;5031440;28;20190;-72
2022/03/10 09:46:14;;;;;;;12.40;8.30;;;11.00;99.90;;;;;;5030950;28;20674;-71
2022/03/10 09:48:40;;;;;;;11.53;7.77;;;11.20;99.90;;;;;;5031554;28;20440;-71
2022/03/10 09:51:07;;;;;;;10.33;8.70;;;11.30;99.90;;;;;;5032086;28;20205;-71
2022/03/10 09:53:34;;;;;;;9.87;7.63;;;11.10;99.90;;;;;;5030937;28;20411;-71
2022/03/10 09:56:01;;;;;;;11.10;8.37;;;11.10;99.90;;;;;;5031351;28;20499;-71
2022/03/10 09:58:27;;;;;;;10.00;6.90;;;10.60;99.90;;;;;;5031215;28;20454;-71
2022/03/10 10:01:09;;;;;;;9.57;7.03;;;10.00;99.90;;;;;;5031260;28;20427;-71
2022/03/10 10:03:34;;;;;;;10.50;6.60;;;9.70;99.90;;;;;;5031732;28;20240;-73
2022/03/10 10:06:02;;;;;;;11.00;6.90;;;9.40;99.90;;;;;;5031444;28;20489;-73
2022/03/10 10:08:30;;;;;;;12.33;6.60;;;9.50;99.90;;;;;;5031409;28;20253;-72
2022/03/10 10:10:56;;;;;;;13.10;7.87;;;9.60;99.90;;;;;;5031039;28;20426;-71
2022/03/10 10:13:31;;;;;;;12.80;7.70;;;9.60;99.90;;;;;;5031279;28;20430;-71
2022/03/10 10:15:59;;;;;;;12.63;7.33;;;9.10;99.90;;;;;;5039042;28;20475;-71
2022/03/10 10:18:26;;;;;;;10.70;6.10;;;8.80;99.90;;;;;;5031141;28;20488;-71
2022/03/10 10:20:53;;;;;;;10.83;5.83;;;8.80;99.90;;;;;;5031171;28;20423;-72
2022/03/10 10:23:29;;;;;;;9.53;5.87;;;8.70;99.90;;;;;;5031254;28;20417;-72
2022/03/10 10:26:01;;;;;;;11.30;6.70;;;8.60;99.90;;;;;;5031509;28;20405;-71
2022/03/10 10:28:41;;;;;;;14.17;7.57;;;8.60;99.90;;;;;;5036242;28;20394;-71
2022/03/10 10:31:12;;;;;;;14.63;6.70;;;8.60;99.90;;;;;;5038292;28;20488;-71
2022/03/10 10:33:43;;;;;;;10.97;6.77;;;8.70;99.90;;;;;;5037345;28;20403;-71
2022/03/10 10:36:13;;;;;;;11.87;7.33;;;8.70;99.90;;;;;;5034515;28;20414;-71
2022/03/10 10:38:40;;;;;;;12.20;7.23;;;8.70;99.90;;;;;;5031722;28;20998;-71
2022/03/10 10:41:15;;;;;;;12.50;6.50;;;8.70;99.90;;;;;;5035836;28;20509;-71
2022/03/10 10:43:52;;;;;;;11.07;7.53;;;8.60;99.90;;;;;;5031104;28;20469;-71
2022/03/10 10:46:27;;;;;;;8.80;6.03;;;8.40;99.90;;;;;;5030704;28;20419;-71
2022/03/10 10:48:53;;;;;;;12.53;7.03;;;8.40;99.90;;;;;;5031032;28;20413;-72
2022/03/10 10:51:34;;;;;;;9.30;7.03;;;8.30;99.90;;;;;;5030810;28;20791;-71
2022/03/10 10:54:02;;;;;;;14.37;6.67;;;8.40;99.90;;;;;;5030976;28;20415;-71
2022/03/10 10:56:32;;;;;;;12.03;5.73;;;8.30;99.90;;;;;;5030985;28;20449;-72
2022/03/10 10:58:57;;;;;;;10.47;7.17;;;8.50;99.90;;;;;;5031418;28;20458;-72
2022/03/10 11:01:30;;;;;;;14.03;7.27;;;8.30;99.90;;;;;;5030899;28;20434;-72
2022/03/10 11:03:56;;;;;;;10.70;7.10;;;8.50;99.90;;;;;;5031350;28;20172;-72
2022/03/10 11:06:22;;;;;;;12.87;6.67;;;8.80;99.90;;;;;;5033179;28;20767;-72
2022/03/10 11:08:48;;;;;;;7.67;6.20;;;8.90;99.90;;;;;;5034405;28;20820;-71
2022/03/10 11:11:15;;;;;;;7.70;4.73;;;8.80;99.90;;;;;;5042037;28;20480;-71
2022/03/10 11:13:40;;;;;;;9.93;5.33;;;8.70;99.90;;;;;;5034361;28;20578;-71
2022/03/10 11:16:07;;;;;;;9.13;5.80;;;8.70;99.90;;;;;;5017235;28;20460;-73
2022/03/10 11:18:33;;;;;;;7.70;5.53;;;8.70;99.90;;;;;;5035846;28;20296;-71
2022/03/10 11:21:11;;;;;;;8.50;5.97;;;8.70;99.90;;;;;;5035574;28;21066;-71
2022/03/10 11:24:00;;;;;;;8.87;5.10;;;8.90;99.90;;;;;;5016084;28;20424;-72
2022/03/10 11:26:33;;;;;;;9.97;6.70;;;8.90;99.90;;;;;;5034568;28;20414;-71
2022/03/10 11:29:00;;;;;;;6.40;5.03;;;9.10;99.90;;;;;;5037781;28;20779;-72
2022/03/10 11:31:29;;;;;;;7.30;5.00;;;9.00;99.90;;;;;;5037104;28;20455;-71
2022/03/10 11:33:54;;;;;;;8.33;5.93;;;9.20;99.90;;;;;;5023981;28;20421;-71
2022/03/10 11:36:28;;;;;;;9.27;5.27;;;9.10;99.90;;;;;;5040468;28;20482;-72
2022/03/10 11:38:58;;;;;;;9.40;5.70;;;9.40;99.90;;;;;;5017478;28;20711;-71
2022/03/10 11:41:40;;;;;;;7.30;5.90;;;9.40;99.90;;;;;;5034208;28;20448;-70
2022/03/10 11:44:07;;;;;;;12.53;5.57;;;9.50;99.90;;;;;;5034285;28;20410;-71
2022/03/10 11:46:32;;;;;;;9.63;6.70;;;9.60;99.90;;;;;;5033955;28;20953;-71
2022/03/10 11:49:14;;;;;;;8.63;6.40;;;9.50;99.90;;;;;;5036350;28;20417;-71
2022/03/10 11:51:57;;;;;;;6.53;5.00;;;9.30;99.90;;;;;;5035933;28;20443;-71
2022/03/10 11:54:23;;;;;;;7.30;5.27;;;8.90;99.90;;;;;;5036068;28;20853;-71
2022/03/10 11:56:52;;;;;;;9.43;6.40;;;8.60;99.90;;;;;;5038428;28;20487;-71
2022/03/10 11:59:34;;;;;;;8.40;5.40;;;8.30;99.90;;;;;;5036298;28;20484;-71
2022/03/10 12:02:01;;;;;;;10.17;6.23;;;8.30;99.90;;;;;;5035484;28;20419;-71
2022/03/10 12:04:40;;;;;;;8.70;4.80;;;8.20;99.90;;;;;;5035099;28;20426;-71
2022/03/10 12:07:08;;;;;;;9.17;5.00;;;8.20;99.90;;;;;;5036143;28;20574;-70
2022/03/10 12:09:38;;;;;;;10.17;6.40;;;8.20;99.90;;;;;;5037556;28;20464;-71
2022/03/10 12:12:18;;;;;;;11.03;6.00;;;8.10;99.90;;;;;;5038012;28;20447;-73
2022/03/10 12:14:45;;;;;;;6.33;5.40;;;8.10;99.90;;;;;;5037352;28;20414;-72
2022/03/10 12:17:42;;;;;;;7.87;4.23;;;8.00;99.90;;;;;;5034912;28;20400;-73
2022/03/10 12:20:14;;;;;;;8.70;6.27;;;8.10;99.90;;;;;;5037761;28;21050;-72
2022/03/10 12:22:40;;;;;;;6.20;3.53;;;8.00;99.90;;;;;;5062248;28;20408;-72
2022/03/10 12:25:22;;;;;;;5.73;5.00;;;8.10;99.90;;;;;;5064978;28;20402;-71
2022/03/10 12:27:49;;;;;;;5.33;3.93;;;8.20;99.90;;;;;;5044013;28;20421;-72
2022/03/10 12:30:20;;;;;;;7.90;4.00;;;8.30;99.90;;;;;;5043669;28;20517;-72
2022/03/10 12:32:50;;;;;;;7.07;4.90;;;8.30;99.90;;;;;;5033549;28;20948;-72
2022/03/10 12:35:17;;;;;;;11.60;5.37;;;8.50;99.90;;;;;;5024960;28;20422;-72
2022/03/10 12:37:49;;;;;;;7.93;6.80;;;8.50;99.90;;;;;;5022152;28;20577;-72
2022/03/10 12:40:24;;;;;;;6.50;5.07;;;8.60;99.90;;;;;;5048959;28;20414;-72
2022/03/10 12:42:51;;;;;;;9.53;4.67;;;8.80;99.90;;;;;;5052990;28;20414;-71
2022/03/10 12:45:20;;;;;;;8.50;5.10;;;8.70;99.90;;;;;;5050925;28;20394;-70
2022/03/10 12:47:54;;;;;;;7.90;5.67;;;8.70;99.90;;;;;;5050859;28;20426;-72
2022/03/10 12:50:20;;;;;;;8.23;5.07;;;8.70;99.90;;;;;;5023672;28;20443;-72
2022/03/10 12:52:45;;;;;;;9.43;5.90;;;8.70;99.90;;;;;;5022021;28;20406;-70
2022/03/10 12:55:11;;;;;;;9.80;5.37;;;8.60;99.90;;;;;;5037266;28;20596;-73